sensor_id;sensor_type;location;lat;lon;timestamp;pressure;altitude;pressure_sealevel;temperature;humidity
28432;BME280;15664;51.302;7.744;2023-02-16T00:00:22;83417.88;;;-146.98;79.40
28432;BME280;15664;51.302;7.744;2023-02-16T00:02:50;83430.09;;;-146.98;79.60
28432;BME280;15664;51.302;7.744;2023-02-16T00:05:27;83415.84;;;-146.98;79.69
28432;BME280;15664;51.302;7.744;2023-02-16T00:07:53;83452.50;;;-146.98;80.12
28432;BME280;15664;51.302;7.744;2023-02-16T00:10:20;83397.53;;;-146.98;80.15
28432;BME280;15664;51.302;7.744;2023-02-16T00:12:45;83448.44;;;-146.98;79.92
28432;BME280;15664;51.302;7.744;2023-02-16T00:15:30;83458.63;;;-146.98;79.49
28432;BME280;15664;51.302;7.744;2023-02-16T00:17:57;83409.75;;;-146.98;79.55
28432;BME280;15664;51.302;7.744;2023-02-16T00:20:24;83448.44;;;-146.98;79.55
28432;BME280;15664;51.302;7.744;2023-02-16T00:22:49;83442.31;;;-146.98;79.53
28432;BME280;15664;51.302;7.744;2023-02-16T00:25:15;83442.31;;;-146.98;79.92
28432;BME280;15664;51.302;7.744;2023-02-16T00:27:40;83466.75;;;-146.98;80.18
28432;BME280;15664;51.302;7.744;2023-02-16T00:30:15;83417.88;;;-146.98;80.47
28432;BME280;15664;51.302;7.744;2023-02-16T00:32:41;83462.69;;;-146.98;80.53
28432;BME280;15664;51.302;7.744;2023-02-16T00:35:15;83444.34;;;-146.98;80.73
28432;BME280;15664;51.302;7.744;2023-02-16T00:37:41;83536.00;;;-146.98;80.88
28432;BME280;15664;51.302;7.744;2023-02-16T00:40:09;83438.25;;;-146.98;80.90
28432;BME280;15664;51.302;7.744;2023-02-16T00:42:35;83462.69;;;-146.98;81.06
28432;BME280;15664;51.302;7.744;2023-02-16T00:45:02;83446.41;;;-146.98;81.39
28432;BME280;15664;51.302;7.744;2023-02-16T00:47:36;83491.19;;;-146.98;81.44
28432;BME280;15664;51.302;7.744;2023-02-16T00:50:14;83454.53;;;-146.98;81.69
28432;BME280;15664;51.302;7.744;2023-02-16T00:52:40;83417.88;;;-146.98;81.80
28432;BME280;15664;51.302;7.744;2023-02-16T00:55:10;83466.75;;;-146.98;82.00
28432;BME280;15664;51.302;7.744;2023-02-16T00:57:42;83409.75;;;-146.98;81.85
28432;BME280;15664;51.302;7.744;2023-02-16T01:00:29;83491.19;;;-146.98;81.56
28432;BME280;15664;51.302;7.744;2023-02-16T01:02:58;83456.56;;;-146.98;81.37
28432;BME280;15664;51.302;7.744;2023-02-16T01:05:25;83458.63;;;-146.98;81.48
28432;BME280;15664;51.302;7.744;2023-02-16T01:07:50;83466.75;;;-146.98;81.34
28432;BME280;15664;51.302;7.744;2023-02-16T01:10:36;83454.53;;;-146.98;81.30
28432;BME280;15664;51.302;7.744;2023-02-16T01:13:22;83426.03;;;-146.98;81.46
28432;BME280;15664;51.302;7.744;2023-02-16T01:15:49;83458.63;;;-146.98;81.44
28432;BME280;15664;51.302;7.744;2023-02-16T01:18:16;83470.84;;;-146.98;81.62
28432;BME280;15664;51.302;7.744;2023-02-16T01:20:44;83489.16;;;-146.98;81.55
28432;BME280;15664;51.302;7.744;2023-02-16T01:23:10;83448.44;;;-146.98;81.53
28432;BME280;15664;51.302;7.744;2023-02-16T01:25:40;83460.66;;;-146.98;81.59
28432;BME280;15664;51.302;7.744;2023-02-16T01:28:21;83529.91;;;-146.98;81.89
28432;BME280;15664;51.302;7.744;2023-02-16T01:30:49;83466.75;;;-146.98;81.80
28432;BME280;15664;51.302;7.744;2023-02-16T01:33:14;83454.53;;;-146.98;81.72
28432;BME280;15664;51.302;7.744;2023-02-16T01:35:40;83470.84;;;-146.98;81.62
28432;BME280;15664;51.302;7.744;2023-02-16T01:38:16;83499.34;;;-146.98;81.35
28432;BME280;15664;51.302;7.744;2023-02-16T01:40:54;83470.84;;;-146.98;81.23
28432;BME280;15664;51.302;7.744;2023-02-16T01:43:25;83458.63;;;-146.98;81.38
28432;BME280;15664;51.302;7.744;2023-02-16T01:46:10;83454.53;;;-146.98;81.39
28432;BME280;15664;51.302;7.744;2023-02-16T01:48:36;83452.50;;;-146.98;81.58
28432;BME280;15664;51.302;7.744;2023-02-16T01:51:13;83442.31;;;-146.98;82.02
28432;BME280;15664;51.302;7.744;2023-02-16T01:53:51;83546.19;;;-146.98;81.62
28432;BME280;15664;51.302;7.744;2023-02-16T01:56:41;83540.06;;;-146.98;81.10
28432;BME280;15664;51.302;7.744;2023-02-16T02:02:11;83458.63;;;-146.98;81.35
28432;BME280;15664;51.302;7.744;2023-02-16T02:04:46;83527.84;;;-146.98;81.73
28432;BME280;15664;51.302;7.744;2023-02-16T02:10:27;83521.75;;;-146.98;81.63
28432;BME280;15664;51.302;7.744;2023-02-16T02:13:20;83493.25;;;-146.98;81.51
28432;BME280;15664;51.302;7.744;2023-02-16T02:15:48;83499.34;;;-146.98;81.73
28432;BME280;15664;51.302;7.744;2023-02-16T02:18:13;83470.84;;;-146.98;82.27
28432;BME280;15664;51.302;7.744;2023-02-16T02:23:44;83495.28;;;-146.98;83.04
28432;BME280;15664;51.302;7.744;2023-02-16T02:29:07;83564.53;;;-146.98;83.23
28432;BME280;15664;51.302;7.744;2023-02-16T02:31:46;83574.69;;;-146.98;83.30
28432;BME280;15664;51.302;7.744;2023-02-16T02:37:24;83527.84;;;-146.98;83.21
28432;BME280;15664;51.302;7.744;2023-02-16T02:42:47;83521.75;;;-146.98;83.38
28432;BME280;15664;51.302;7.744;2023-02-16T02:45:22;83474.91;;;-146.98;83.50
28432;BME280;15664;51.302;7.744;2023-02-16T02:47:49;83540.06;;;-146.98;83.47
28432;BME280;15664;51.302;7.744;2023-02-16T02:53:49;83538.03;;;-146.98;83.09
28432;BME280;15664;51.302;7.744;2023-02-16T02:56:38;83533.97;;;-146.98;82.93
28432;BME280;15664;51.302;7.744;2023-02-16T02:59:25;83533.97;;;-146.98;82.70
28432;BME280;15664;51.302;7.744;2023-02-16T03:02:12;83536.00;;;-146.98;82.76
28432;BME280;15664;51.302;7.744;2023-02-16T03:04:39;83519.72;;;-146.98;83.73
28432;BME280;15664;51.302;7.744;2023-02-16T03:07:06;83491.19;;;-146.98;83.99
28432;BME280;15664;51.302;7.744;2023-02-16T03:09:33;83487.13;;;-146.98;83.63
28432;BME280;15664;51.302;7.744;2023-02-16T03:12:00;83499.34;;;-146.98;83.29
28432;BME280;15664;51.302;7.744;2023-02-16T03:14:55;83483.06;;;-146.98;83.32
28432;BME280;15664;51.302;7.744;2023-02-16T03:17:26;83495.28;;;-146.98;83.41
28432;BME280;15664;51.302;7.744;2023-02-16T03:20:15;83513.59;;;-146.98;83.39
28432;BME280;15664;51.302;7.744;2023-02-16T03:23:00;83513.59;;;-146.98;83.40
28432;BME280;15664;51.302;7.744;2023-02-16T03:25:47;83442.31;;;-146.98;83.45
28432;BME280;15664;51.302;7.744;2023-02-16T03:28:32;83523.78;;;-146.98;83.25
28432;BME280;15664;51.302;7.744;2023-02-16T03:31:20;83493.25;;;-146.98;83.21
28432;BME280;15664;51.302;7.744;2023-02-16T03:33:48;83470.84;;;-146.98;83.18
28432;BME280;15664;51.302;7.744;2023-02-16T03:36:27;83454.53;;;-146.98;82.98
28432;BME280;15664;51.302;7.744;2023-02-16T03:38:55;83485.09;;;-146.98;83.14
28432;BME280;15664;51.302;7.744;2023-02-16T03:41:20;83503.41;;;-146.98;82.93
28432;BME280;15664;51.302;7.744;2023-02-16T03:43:46;83489.16;;;-146.98;82.71
28432;BME280;15664;51.302;7.744;2023-02-16T03:46:12;83552.31;;;-146.98;82.68
28432;BME280;15664;51.302;7.744;2023-02-16T03:48:37;83489.16;;;-146.98;82.78
28432;BME280;15664;51.302;7.744;2023-02-16T03:51:03;83527.84;;;-146.98;82.55
28432;BME280;15664;51.302;7.744;2023-02-16T03:53:28;83523.78;;;-146.98;82.64
28432;BME280;15664;51.302;7.744;2023-02-16T03:55:54;83635.81;;;-146.98;82.73
28432;BME280;15664;51.302;7.744;2023-02-16T03:58:22;83527.84;;;-146.98;82.73
28432;BME280;15664;51.302;7.744;2023-02-16T04:00:49;83550.25;;;-146.98;83.25
28432;BME280;15664;51.302;7.744;2023-02-16T04:03:15;83499.34;;;-146.98;83.46
28432;BME280;15664;51.302;7.744;2023-02-16T04:05:40;83558.41;;;-146.98;83.62
28432;BME280;15664;51.302;7.744;2023-02-16T04:08:07;83556.38;;;-146.98;83.77
28432;BME280;15664;51.302;7.744;2023-02-16T04:10:33;83538.03;;;-146.98;84.10
28432;BME280;15664;51.302;7.744;2023-02-16T04:12:59;83601.19;;;-146.98;84.26
28432;BME280;15664;51.302;7.744;2023-02-16T04:15:26;83580.81;;;-146.98;84.44
28432;BME280;15664;51.302;7.744;2023-02-16T04:17:53;83542.13;;;-146.98;84.36
28432;BME280;15664;51.302;7.744;2023-02-16T04:20:21;83499.34;;;-146.98;84.42
28432;BME280;15664;51.302;7.744;2023-02-16T04:22:47;83556.38;;;-146.98;84.47
28432;BME280;15664;51.302;7.744;2023-02-16T04:25:14;83540.06;;;-146.98;83.96
28432;BME280;15664;51.302;7.744;2023-02-16T04:27:40;83552.31;;;-146.98;83.94
28432;BME280;15664;51.302;7.744;2023-02-16T04:30:08;83570.63;;;-146.98;83.85
28432;BME280;15664;51.302;7.744;2023-02-16T04:32:34;83548.22;;;-146.98;83.72
28432;BME280;15664;51.302;7.744;2023-02-16T04:35:00;83507.50;;;-146.98;83.73
28432;BME280;15664;51.302;7.744;2023-02-16T04:37:25;83515.63;;;-146.98;83.92
28432;BME280;15664;51.302;7.744;2023-02-16T04:39:51;83556.38;;;-146.98;83.84
28432;BME280;15664;51.302;7.744;2023-02-16T04:42:17;83527.84;;;-146.98;83.57
28432;BME280;15664;51.302;7.744;2023-02-16T04:44:43;83550.25;;;-146.98;83.30
28432;BME280;15664;51.302;7.744;2023-02-16T04:47:09;83533.97;;;-146.98;83.48
28432;BME280;15664;51.302;7.744;2023-02-16T04:49:34;83495.28;;;-146.98;83.57
28432;BME280;15664;51.302;7.744;2023-02-16T04:52:00;83501.38;;;-146.98;83.31
28432;BME280;15664;51.302;7.744;2023-02-16T04:54:29;83556.38;;;-146.98;83.11
28432;BME280;15664;51.302;7.744;2023-02-16T04:56:55;83509.53;;;-146.98;82.96
28432;BME280;15664;51.302;7.744;2023-02-16T04:59:21;83564.53;;;-146.98;82.96
28432;BME280;15664;51.302;7.744;2023-02-16T05:01:46;83503.41;;;-146.98;82.68
28432;BME280;15664;51.302;7.744;2023-02-16T05:04:13;83552.31;;;-146.98;82.57
28432;BME280;15664;51.302;7.744;2023-02-16T05:06:39;83556.38;;;-146.98;82.50
28432;BME280;15664;51.302;7.744;2023-02-16T05:09:05;83552.31;;;-146.98;82.54
28432;BME280;15664;51.302;7.744;2023-02-16T05:11:30;83550.25;;;-146.98;82.43
28432;BME280;15664;51.302;7.744;2023-02-16T05:14:24;83550.25;;;-146.98;82.37
28432;BME280;15664;51.302;7.744;2023-02-16T05:17:17;83550.25;;;-146.98;82.23
28432;BME280;15664;51.302;7.744;2023-02-16T05:19:45;83558.41;;;-146.98;82.12
28432;BME280;15664;51.302;7.744;2023-02-16T05:22:11;83527.84;;;-146.98;82.00
28432;BME280;15664;51.302;7.744;2023-02-16T05:24:37;83544.16;;;-146.98;82.15
28432;BME280;15664;51.302;7.744;2023-02-16T05:27:05;83536.00;;;-146.98;81.89
28432;BME280;15664;51.302;7.744;2023-02-16T05:29:31;83564.53;;;-146.98;81.93
28432;BME280;15664;51.302;7.744;2023-02-16T05:31:57;83521.75;;;-146.98;82.25
28432;BME280;15664;51.302;7.744;2023-02-16T05:34:22;83540.06;;;-146.98;82.47
28432;BME280;15664;51.302;7.744;2023-02-16T05:36:48;83540.06;;;-146.98;82.62
28432;BME280;15664;51.302;7.744;2023-02-16T05:39:14;83564.53;;;-146.98;82.64
28432;BME280;15664;51.302;7.744;2023-02-16T05:41:39;83546.19;;;-146.98;82.62
28432;BME280;15664;51.302;7.744;2023-02-16T05:44:06;83560.44;;;-146.98;82.53
28432;BME280;15664;51.302;7.744;2023-02-16T05:46:33;83584.88;;;-146.98;82.50
28432;BME280;15664;51.302;7.744;2023-02-16T05:49:00;83556.38;;;-146.98;82.30
28432;BME280;15664;51.302;7.744;2023-02-16T05:51:26;83580.81;;;-146.98;82.29
28432;BME280;15664;51.302;7.744;2023-02-16T05:53:52;83572.66;;;-146.98;82.41
28432;BME280;15664;51.302;7.744;2023-02-16T05:56:18;83552.31;;;-146.98;82.48
28432;BME280;15664;51.302;7.744;2023-02-16T05:58:44;83529.91;;;-146.98;82.78
28432;BME280;15664;51.302;7.744;2023-02-16T06:01:10;83540.06;;;-146.98;82.81
28432;BME280;15664;51.302;7.744;2023-02-16T06:03:36;83560.44;;;-146.98;82.74
28432;BME280;15664;51.302;7.744;2023-02-16T06:06:02;83568.59;;;-146.98;82.82
28432;BME280;15664;51.302;7.744;2023-02-16T06:08:29;83538.03;;;-146.98;82.93
28432;BME280;15664;51.302;7.744;2023-02-16T06:10:55;83538.03;;;-146.98;82.15
28432;BME280;15664;51.302;7.744;2023-02-16T06:13:21;83597.09;;;-146.98;81.87
28432;BME280;15664;51.302;7.744;2023-02-16T06:15:51;83485.09;;;-146.98;81.46
28432;BME280;15664;51.302;7.744;2023-02-16T06:18:17;83611.38;;;-146.98;81.64
28432;BME280;15664;51.302;7.744;2023-02-16T06:20:43;83552.31;;;-146.98;81.79
28432;BME280;15664;51.302;7.744;2023-02-16T06:23:10;83568.59;;;-146.98;81.76
28432;BME280;15664;51.302;7.744;2023-02-16T06:25:36;83542.13;;;-146.98;81.59
28432;BME280;15664;51.302;7.744;2023-02-16T06:28:02;83544.16;;;-146.98;81.60
28432;BME280;15664;51.302;7.744;2023-02-16T06:30:28;83536.00;;;-146.98;81.60
28432;BME280;15664;51.302;7.744;2023-02-16T06:32:54;83538.03;;;-146.98;81.89
28432;BME280;15664;51.302;7.744;2023-02-16T06:35:20;83519.72;;;-146.98;81.99
28432;BME280;15664;51.302;7.744;2023-02-16T06:37:45;83546.19;;;-146.98;82.07
28432;BME280;15664;51.302;7.744;2023-02-16T06:40:11;83523.78;;;-146.98;82.07
28432;BME280;15664;51.302;7.744;2023-02-16T06:42:41;83527.84;;;-146.98;82.36
28432;BME280;15664;51.302;7.744;2023-02-16T06:45:08;83540.06;;;-146.98;82.22
28432;BME280;15664;51.302;7.744;2023-02-16T06:47:35;83548.22;;;-146.98;82.00
28432;BME280;15664;51.302;7.744;2023-02-16T06:50:00;83536.00;;;-146.98;81.73
28432;BME280;15664;51.302;7.744;2023-02-16T06:52:26;83536.00;;;-146.98;81.77
28432;BME280;15664;51.302;7.744;2023-02-16T06:54:51;83531.94;;;-146.98;81.56
28432;BME280;15664;51.302;7.744;2023-02-16T06:57:16;83517.69;;;-146.98;81.19
28432;BME280;15664;51.302;7.744;2023-02-16T06:59:42;83507.50;;;-146.98;80.95
28432;BME280;15664;51.302;7.744;2023-02-16T07:02:08;83536.00;;;-146.98;80.89
28432;BME280;15664;51.302;7.744;2023-02-16T07:04:34;83525.81;;;-146.98;81.32
28432;BME280;15664;51.302;7.744;2023-02-16T07:06:59;83536.00;;;-146.98;81.69
28432;BME280;15664;51.302;7.744;2023-02-16T07:09:25;83527.84;;;-146.98;81.56
28432;BME280;15664;51.302;7.744;2023-02-16T07:11:50;83495.28;;;-146.98;81.72
28432;BME280;15664;51.302;7.744;2023-02-16T07:14:16;83499.34;;;-146.98;81.98
28432;BME280;15664;51.302;7.744;2023-02-16T07:16:41;83531.94;;;-146.98;81.94
28432;BME280;15664;51.302;7.744;2023-02-16T07:19:07;83489.16;;;-146.98;81.81
28432;BME280;15664;51.302;7.744;2023-02-16T07:21:33;83462.69;;;-146.98;81.62
28432;BME280;15664;51.302;7.744;2023-02-16T07:23:58;83507.50;;;-146.98;81.42
28432;BME280;15664;51.302;7.744;2023-02-16T07:26:24;83527.84;;;-146.98;81.03
28432;BME280;15664;51.302;7.744;2023-02-16T07:28:49;83464.72;;;-146.98;80.60
28432;BME280;15664;51.302;7.744;2023-02-16T07:31:16;83454.53;;;-146.98;79.03
28432;BME280;15664;51.302;7.744;2023-02-16T07:33:42;83446.41;;;-146.98;78.07
28432;BME280;15664;51.302;7.744;2023-02-16T07:36:08;83385.31;;;-146.98;77.08
28432;BME280;15664;51.302;7.744;2023-02-16T07:38:35;83385.31;;;-146.98;75.67
28432;BME280;15664;51.302;7.744;2023-02-16T07:41:00;83377.16;;;-146.98;70.74
28432;BME280;15664;51.302;7.744;2023-02-16T07:43:26;83340.50;;;-146.98;70.34
28432;BME280;15664;51.302;7.744;2023-02-16T07:45:52;83334.38;;;-146.98;70.72
28432;BME280;15664;51.302;7.744;2023-02-16T07:48:18;83244.78;;;-146.98;70.44
28432;BME280;15664;51.302;7.744;2023-02-16T07:50:43;83232.56;;;-146.98;67.15
28432;BME280;15664;51.302;7.744;2023-02-16T07:53:09;83206.09;;;-146.98;65.76
28432;BME280;15664;51.302;7.744;2023-02-16T07:55:43;83220.34;;;-146.98;64.03
28432;BME280;15664;51.302;7.744;2023-02-16T07:58:09;83224.41;;;-146.98;64.43
28432;BME280;15664;51.302;7.744;2023-02-16T08:00:35;83259.03;;;-146.98;64.63
28432;BME280;15664;51.302;7.744;2023-02-16T08:03:01;83220.34;;;-146.98;64.27
28432;BME280;15664;51.302;7.744;2023-02-16T08:05:26;83189.78;;;-146.98;63.60
28432;BME280;15664;51.302;7.744;2023-02-16T08:07:53;83189.78;;;-146.98;63.00
28432;BME280;15664;51.302;7.744;2023-02-16T08:10:19;83206.09;;;-146.98;62.78
28432;BME280;15664;51.302;7.744;2023-02-16T08:12:45;83236.63;;;-146.98;62.53
28432;BME280;15664;51.302;7.744;2023-02-16T08:15:11;83165.38;;;-146.98;62.88
28432;BME280;15664;51.302;7.744;2023-02-16T08:17:36;83185.72;;;-146.98;63.06
28432;BME280;15664;51.302;7.744;2023-02-16T08:20:04;83187.75;;;-146.98;62.69
28432;BME280;15664;51.302;7.744;2023-02-16T08:22:30;83206.09;;;-146.98;62.25
28432;BME280;15664;51.302;7.744;2023-02-16T08:24:57;83128.72;;;-146.98;62.30
28432;BME280;15664;51.302;7.744;2023-02-16T08:27:24;83151.09;;;-146.98;62.34
28432;BME280;15664;51.302;7.744;2023-02-16T08:29:52;83159.25;;;-146.98;62.50
28432;BME280;15664;51.302;7.744;2023-02-16T08:32:17;83136.84;;;-146.98;61.83
28432;BME280;15664;51.302;7.744;2023-02-16T08:34:43;83195.91;;;-146.98;61.70
28432;BME280;15664;51.302;7.744;2023-02-16T08:37:10;83181.66;;;-146.98;61.28
28432;BME280;15664;51.302;7.744;2023-02-16T08:39:36;83118.53;;;-146.98;60.80
28432;BME280;15664;51.302;7.744;2023-02-16T08:42:02;83100.19;;;-146.98;61.05
28432;BME280;15664;51.302;7.744;2023-02-16T08:44:28;83145.00;;;-146.98;61.56
28432;BME280;15664;51.302;7.744;2023-02-16T08:46:58;83120.56;;;-146.98;61.03
28432;BME280;15664;51.302;7.744;2023-02-16T08:49:24;83126.66;;;-146.98;61.46
28432;BME280;15664;51.302;7.744;2023-02-16T08:51:55;83132.78;;;-146.98;60.70
28432;BME280;15664;51.302;7.744;2023-02-16T08:54:26;83104.25;;;-146.98;59.94
28432;BME280;15664;51.302;7.744;2023-02-16T08:56:55;83124.63;;;-146.98;60.19
28432;BME280;15664;51.302;7.744;2023-02-16T08:59:22;83116.50;;;-146.98;58.75
28432;BME280;15664;51.302;7.744;2023-02-16T09:01:48;83041.13;;;-146.98;58.74
28432;BME280;15664;51.302;7.744;2023-02-16T09:04:15;83063.53;;;-146.98;58.05
28432;BME280;15664;51.302;7.744;2023-02-16T09:06:43;83051.31;;;-146.98;57.05
28432;BME280;15664;51.302;7.744;2023-02-16T09:09:09;83022.81;;;-146.98;57.41
28432;BME280;15664;51.302;7.744;2023-02-16T09:11:36;83057.44;;;-146.98;57.53
28432;BME280;15664;51.302;7.744;2023-02-16T09:14:02;83037.06;;;-146.98;57.19
28432;BME280;15664;51.302;7.744;2023-02-16T09:16:28;83063.53;;;-146.98;57.26
28432;BME280;15664;51.302;7.744;2023-02-16T09:18:59;82984.13;;;-146.98;55.56
28432;BME280;15664;51.302;7.744;2023-02-16T09:21:27;83087.97;;;-146.98;55.31
28432;BME280;15664;51.302;7.744;2023-02-16T09:23:57;83073.72;;;-146.98;55.69
28432;BME280;15664;51.302;7.744;2023-02-16T09:26:24;83065.56;;;-146.98;55.28
28432;BME280;15664;51.302;7.744;2023-02-16T09:28:51;83053.34;;;-146.98;55.38
28432;BME280;15664;51.302;7.744;2023-02-16T09:31:26;83053.34;;;-146.98;56.44
28432;BME280;15664;51.302;7.744;2023-02-16T09:33:54;83010.59;;;-146.98;56.53
28432;BME280;15664;51.302;7.744;2023-02-16T09:36:20;83010.59;;;-146.98;55.51
28432;BME280;15664;51.302;7.744;2023-02-16T09:38:46;83020.78;;;-146.98;53.22
28432;BME280;15664;51.302;7.744;2023-02-16T09:41:53;83043.19;;;-146.98;53.74
28432;BME280;15664;51.302;7.744;2023-02-16T09:47:01;82965.78;;;-146.98;54.32
28432;BME280;15664;51.302;7.744;2023-02-16T09:49:31;82982.09;;;-146.98;54.69
28432;BME280;15664;51.302;7.744;2023-02-16T09:54:58;82994.31;;;-146.98;53.06
28432;BME280;15664;51.302;7.744;2023-02-16T10:00:47;82890.44;;;-146.98;53.17
28432;BME280;15664;51.302;7.744;2023-02-16T10:09:15;82863.97;;;-146.98;53.30
28432;BME280;15664;51.302;7.744;2023-02-16T10:11:45;82809.00;;;-146.98;51.15
28432;BME280;15664;51.302;7.744;2023-02-16T10:15:11;82609.47;;;-146.98;47.27
28432;BME280;15664;51.302;7.744;2023-02-16T10:20:02;82499.50;;;-146.98;43.43
28432;BME280;15664;51.302;7.744;2023-02-16T10:22:47;82521.91;;;-146.98;43.35
28432;BME280;15664;51.302;7.744;2023-02-16T10:25:18;82613.53;;;-146.98;45.51
28432;BME280;15664;51.302;7.744;2023-02-16T10:27:50;82619.63;;;-146.98;45.18
28432;BME280;15664;51.302;7.744;2023-02-16T10:30:20;82697.00;;;-146.98;45.75
28432;BME280;15664;51.302;7.744;2023-02-16T10:32:58;82684.78;;;-146.98;46.92
28432;BME280;15664;51.302;7.744;2023-02-16T10:35:43;82676.66;;;-146.98;47.54
28432;BME280;15664;51.302;7.744;2023-02-16T10:41:02;82774.38;;;-146.98;49.70
28432;BME280;15664;51.302;7.744;2023-02-16T10:43:51;82719.41;;;-146.98;49.63
28432;BME280;15664;51.302;7.744;2023-02-16T10:46:39;82823.25;;;-146.98;49.78
28432;BME280;15664;51.302;7.744;2023-02-16T10:49:11;82806.97;;;-146.98;51.84
28432;BME280;15664;51.302;7.744;2023-02-16T10:51:38;82800.84;;;-146.98;52.20
28432;BME280;15664;51.302;7.744;2023-02-16T10:54:15;82780.50;;;-146.98;51.69
28432;BME280;15664;51.302;7.744;2023-02-16T10:56:52;82866.03;;;-146.98;53.09
28432;BME280;15664;51.302;7.744;2023-02-16T10:59:23;82870.09;;;-146.98;53.69
28432;BME280;15664;51.302;7.744;2023-02-16T11:01:52;82868.06;;;-146.98;54.51
28432;BME280;15664;51.302;7.744;2023-02-16T11:04:48;82872.13;;;-146.98;55.58
28432;BME280;15664;51.302;7.744;2023-02-16T11:07:22;82927.09;;;-146.98;56.37
28432;BME280;15664;51.302;7.744;2023-02-16T11:09:50;82870.09;;;-146.98;56.71
28432;BME280;15664;51.302;7.744;2023-02-16T11:14:58;82912.84;;;-146.98;57.98
28432;BME280;15664;51.302;7.744;2023-02-16T11:17:25;82896.56;;;-146.98;58.20
28432;BME280;15664;51.302;7.744;2023-02-16T11:22:31;82929.16;;;-146.98;58.43
28432;BME280;15664;51.302;7.744;2023-02-16T11:27:56;82912.84;;;-146.98;59.89
28432;BME280;15664;51.302;7.744;2023-02-16T11:32:54;82904.72;;;-146.98;60.38
28432;BME280;15664;51.302;7.744;2023-02-16T11:35:20;82939.31;;;-146.98;60.48
28432;BME280;15664;51.302;7.744;2023-02-16T11:37:46;82931.19;;;-146.98;61.51
28432;BME280;15664;51.302;7.744;2023-02-16T11:40:28;82908.78;;;-146.98;61.42
28432;BME280;15664;51.302;7.744;2023-02-16T11:42:56;82890.44;;;-146.98;61.05
28432;BME280;15664;51.302;7.744;2023-02-16T11:45:34;82945.44;;;-146.98;61.17
28432;BME280;15664;51.302;7.744;2023-02-16T11:48:04;82890.44;;;-146.98;61.54
28432;BME280;15664;51.302;7.744;2023-02-16T11:50:36;82866.03;;;-146.98;60.91
28432;BME280;15664;51.302;7.744;2023-02-16T11:55:37;82874.16;;;-146.98;61.26
28432;BME280;15664;51.302;7.744;2023-02-16T11:58:19;82888.41;;;-146.98;61.08
28432;BME280;15664;51.302;7.744;2023-02-16T12:04:02;82874.16;;;-146.98;62.69
28432;BME280;15664;51.302;7.744;2023-02-16T12:09:25;82855.84;;;-146.98;61.86
28432;BME280;15664;51.302;7.744;2023-02-16T12:12:08;82845.66;;;-146.98;62.66
28432;BME280;15664;51.302;7.744;2023-02-16T12:14:51;82823.25;;;-146.98;62.29
28432;BME280;15664;51.302;7.744;2023-02-16T12:17:41;82817.16;;;-146.98;61.48
28432;BME280;15664;51.302;7.744;2023-02-16T12:23:03;82711.25;;;-146.98;62.09
28432;BME280;15664;51.302;7.744;2023-02-16T12:25:38;82798.81;;;-146.98;61.56
28432;BME280;15664;51.302;7.744;2023-02-16T12:28:20;82784.56;;;-146.98;61.34
28432;BME280;15664;51.302;7.744;2023-02-16T12:30:56;82749.94;;;-146.98;60.68
28432;BME280;15664;51.302;7.744;2023-02-16T12:33:26;82764.22;;;-146.98;59.60
28432;BME280;15664;51.302;7.744;2023-02-16T12:36:27;82711.25;;;-146.98;58.97
28432;BME280;15664;51.302;7.744;2023-02-16T12:39:15;82707.19;;;-146.98;59.39
28432;BME280;15664;51.302;7.744;2023-02-16T12:41:52;82682.75;;;-146.98;59.27
28432;BME280;15664;51.302;7.744;2023-02-16T12:44:38;82619.63;;;-146.98;59.17
28432;BME280;15664;51.302;7.744;2023-02-16T12:47:13;82749.94;;;-146.98;60.13
28432;BME280;15664;51.302;7.744;2023-02-16T12:49:54;82782.53;;;-146.98;61.19
28432;BME280;15664;51.302;7.744;2023-02-16T12:52:40;82749.94;;;-146.98;61.64
28432;BME280;15664;51.302;7.744;2023-02-16T12:55:17;82802.91;;;-146.98;62.13
28432;BME280;15664;51.302;7.744;2023-02-16T12:58:01;82802.91;;;-146.98;62.59
28432;BME280;15664;51.302;7.744;2023-02-16T13:00:38;82843.63;;;-146.98;62.80
28432;BME280;15664;51.302;7.744;2023-02-16T13:06:19;82749.94;;;-146.98;63.10
28432;BME280;15664;51.302;7.744;2023-02-16T13:09:22;82819.19;;;-146.98;64.33
28432;BME280;15664;51.302;7.744;2023-02-16T13:11:55;82823.25;;;-146.98;65.56
28432;BME280;15664;51.302;7.744;2023-02-16T13:14:26;82853.81;;;-146.98;67.14
28432;BME280;15664;51.302;7.744;2023-02-16T13:17:14;82855.84;;;-146.98;67.32
28432;BME280;15664;51.302;7.744;2023-02-16T13:19:42;82880.28;;;-146.98;68.76
28432;BME280;15664;51.302;7.744;2023-02-16T13:27:37;82855.84;;;-146.98;68.76
28432;BME280;15664;51.302;7.744;2023-02-16T13:30:37;82876.19;;;-146.98;69.10
28432;BME280;15664;51.302;7.744;2023-02-16T13:33:26;82904.72;;;-146.98;69.68
28432;BME280;15664;51.302;7.744;2023-02-16T13:36:25;82890.44;;;-146.98;69.90
28432;BME280;15664;51.302;7.744;2023-02-16T13:39:19;82872.13;;;-146.98;70.16
28432;BME280;15664;51.302;7.744;2023-02-16T13:44:59;82908.78;;;-146.98;69.77
28432;BME280;15664;51.302;7.744;2023-02-16T13:47:29;82896.56;;;-146.98;69.67
28432;BME280;15664;51.302;7.744;2023-02-16T13:50:04;82845.66;;;-146.98;69.70
28432;BME280;15664;51.302;7.744;2023-02-16T13:52:40;82861.94;;;-146.98;70.03
28432;BME280;15664;51.302;7.744;2023-02-16T13:55:27;82892.50;;;-146.98;70.17
28432;BME280;15664;51.302;7.744;2023-02-16T14:00:36;82916.94;;;-146.98;69.61
28432;BME280;15664;51.302;7.744;2023-02-16T14:03:12;82888.41;;;-146.98;69.74
28432;BME280;15664;51.302;7.744;2023-02-16T14:09:29;82947.47;;;-146.98;69.79
28432;BME280;15664;51.302;7.744;2023-02-16T14:17:23;82861.94;;;-146.98;68.12
28432;BME280;15664;51.302;7.744;2023-02-16T14:22:31;82737.72;;;-146.98;64.72
28432;BME280;15664;51.302;7.744;2023-02-16T14:25:00;82680.72;;;-146.98;64.14
28432;BME280;15664;51.302;7.744;2023-02-16T14:27:47;82635.94;;;-146.98;62.90
28432;BME280;15664;51.302;7.744;2023-02-16T14:38:34;82733.66;;;-146.98;64.19